Time;durP1;ratioP1;P1;durP2;ratioP2;P2;SDS_P1;SDS_P2;PMS_P1;PMS_P2;Temp;Humidity;BMP_temperature;BMP_pressure;BME280_temperature;BME280_humidity;BME280_pressure;Samples;Min_cycle;Max_cycle;Signal;HPM_P1;HPM_P2
2022/08/29 00:02:15;;;;;;;20.27;9.45;;;21.90;99.90;;;;;;5013675;28;20050;-73
2022/08/29 00:04:41;;;;;;;15.57;8.85;;;21.90;99.90;;;;;;5014337;28;20018;-71
2022/08/29 00:07:07;;;;;;;17.65;9.15;;;22.00;99.90;;;;;;5015914;28;20038;-73
2022/08/29 00:09:33;;;;;;;15.52;8.32;;;22.10;99.90;;;;;;5014004;28;20022;-71
2022/08/29 00:11:58;;;;;;;16.83;9.20;;;22.10;99.90;;;;;;5014056;28;20516;-73
2022/08/29 00:14:25;;;;;;;18.52;8.90;;;22.10;99.90;;;;;;5013442;28;20125;-70
2022/08/29 00:16:50;;;;;;;13.77;8.00;;;22.10;99.90;;;;;;5001660;28;20110;-66
2022/08/29 00:19:16;;;;;;;17.73;9.63;;;22.10;99.90;;;;;;4997147;28;20019;-73
2022/08/29 00:21:42;;;;;;;18.50;8.63;;;22.10;99.90;;;;;;4994859;28;20438;-72
2022/08/29 00:24:08;;;;;;;16.40;8.57;;;22.10;99.90;;;;;;5026541;28;20032;-73
2022/08/29 00:26:34;;;;;;;15.00;9.70;;;22.00;99.90;;;;;;5014283;28;20041;-71
2022/08/29 00:29:00;;;;;;;19.05;8.80;;;21.90;99.90;;;;;;5014289;28;20033;-74
2022/08/29 00:31:27;;;;;;;14.93;8.85;;;21.90;99.90;;;;;;5014297;28;20034;-72
2022/08/29 00:33:53;;;;;;;13.70;9.00;;;21.90;99.90;;;;;;5014265;28;20393;-69
2022/08/29 00:36:18;;;;;;;17.23;8.25;;;21.90;99.90;;;;;;5014434;28;20480;-72
2022/08/29 00:38:44;;;;;;;19.63;8.98;;;21.90;99.90;;;;;;5013885;28;20109;-71
2022/08/29 00:41:10;;;;;;;14.52;8.63;;;21.90;99.90;;;;;;5013962;28;20029;-71
2022/08/29 00:43:36;;;;;;;16.08;9.25;;;21.90;99.90;;;;;;5014194;28;20052;-72
2022/08/29 00:46:20;;;;;;;16.58;9.27;;;21.90;99.90;;;;;;5014222;28;20073;-73
2022/08/29 00:48:54;;;;;;;18.48;8.88;;;22.00;99.90;;;;;;4997945;28;20058;-71
2022/08/29 00:51:21;;;;;;;17.77;8.93;;;22.00;99.90;;;;;;4995154;28;20112;-72
2022/08/29 00:53:51;;;;;;;18.40;8.85;;;22.10;99.90;;;;;;4998198;28;20037;-71
2022/08/29 00:56:17;;;;;;;14.88;8.48;;;22.00;99.90;;;;;;5000755;28;20101;-73
2022/08/29 00:58:50;;;;;;;15.45;8.95;;;22.10;99.90;;;;;;4995855;28;20023;-74
2022/08/29 01:01:17;;;;;;;16.85;10.02;;;22.00;99.90;;;;;;4993054;28;20077;-73
2022/08/29 01:03:44;;;;;;;16.85;8.80;;;22.00;99.90;;;;;;4992882;28;20428;-70
2022/08/29 01:06:12;;;;;;;16.33;9.10;;;22.00;99.90;;;;;;4992965;28;20034;-72
2022/08/29 01:08:38;;;;;;;17.65;9.77;;;22.10;99.90;;;;;;4992565;28;20029;-72
2022/08/29 01:13:51;;;;;;;14.63;9.10;;;22.20;99.90;;;;;;4992457;28;20038;-73
2022/08/29 01:16:19;;;;;;;14.45;9.40;;;22.00;99.90;;;;;;4992410;28;20018;-74
2022/08/29 01:18:47;;;;;;;15.18;9.95;;;22.10;99.90;;;;;;4992318;28;20041;-73
2022/08/29 01:21:33;;;;;;;17.13;9.55;;;22.00;99.90;;;;;;4992689;28;20493;-73
2022/08/29 01:24:35;;;;;;;16.13;8.85;;;22.10;99.90;;;;;;4989898;28;20038;-73
2022/08/29 01:27:02;;;;;;;16.67;10.23;;;22.10;99.90;;;;;;4976240;28;20061;-71
2022/08/29 01:29:28;;;;;;;16.27;9.60;;;22.00;99.90;;;;;;4970634;28;20038;-73
2022/08/29 01:31:54;;;;;;;17.13;9.23;;;22.00;99.90;;;;;;4974690;28;20032;-72
2022/08/29 01:34:21;;;;;;;15.25;9.95;;;21.90;99.90;;;;;;4970614;28;20034;-72
2022/08/29 01:36:49;;;;;;;20.45;10.20;;;21.90;99.90;;;;;;4970771;28;20114;-69
2022/08/29 01:39:17;;;;;;;16.25;9.65;;;21.80;99.90;;;;;;4974496;28;20118;-73
2022/08/29 01:41:43;;;;;;;19.77;10.68;;;21.80;99.90;;;;;;4970356;28;20027;-73
2022/08/29 01:44:18;;;;;;;16.25;10.25;;;21.80;99.90;;;;;;4970243;28;20486;-72
2022/08/29 01:46:47;;;;;;;17.83;9.50;;;21.80;99.90;;;;;;4970040;28;20494;-71
2022/08/29 01:49:14;;;;;;;17.08;9.00;;;21.80;99.90;;;;;;4973302;28;20035;-70
2022/08/29 01:51:40;;;;;;;17.17;9.68;;;21.80;99.90;;;;;;4970384;28;20031;-73
2022/08/29 01:54:09;;;;;;;18.08;10.35;;;21.70;99.90;;;;;;4971074;28;20521;-73
2022/08/29 01:56:40;;;;;;;17.10;10.32;;;21.60;99.90;;;;;;4970127;28;20070;-70
2022/08/29 01:59:10;;;;;;;18.05;10.20;;;21.60;99.90;;;;;;4971118;28;20031;-73
2022/08/29 02:01:39;;;;;;;23.90;10.02;;;21.50;99.90;;;;;;4970312;28;20070;-70
2022/08/29 02:04:07;;;;;;;15.50;10.32;;;21.40;99.90;;;;;;4988219;28;20034;-72
2022/08/29 02:06:33;;;;;;;21.95;10.07;;;21.40;99.90;;;;;;4991889;28;20037;-72
2022/08/29 02:09:00;;;;;;;20.42;10.93;;;21.30;99.90;;;;;;4991851;28;20057;-72
2022/08/29 02:11:26;;;;;;;25.98;12.93;;;21.20;99.90;;;;;;4995761;28;20029;-72
2022/08/29 02:13:55;;;;;;;18.00;12.05;;;21.10;99.90;;;;;;4991572;28;20547;-71
2022/08/29 02:16:24;;;;;;;17.73;11.52;;;21.10;99.90;;;;;;4991837;28;20029;-72
2022/08/29 02:18:51;;;;;;;24.92;13.02;;;21.20;99.90;;;;;;4991718;28;20026;-71
2022/08/29 02:21:21;;;;;;;19.45;11.73;;;21.10;99.90;;;;;;4991692;28;20018;-72
2022/08/29 02:23:48;;;;;;;22.10;12.65;;;21.10;99.90;;;;;;4991572;28;20050;-73
2022/08/29 02:26:16;;;;;;;19.52;11.70;;;21.00;99.90;;;;;;4991546;28;20022;-71
2022/08/29 02:28:42;;;;;;;21.73;12.50;;;21.00;99.90;;;;;;4991532;28;20088;-72
2022/08/29 02:31:08;;;;;;;19.08;12.40;;;21.00;99.90;;;;;;4991678;28;20080;-72
2022/08/29 02:33:36;;;;;;;21.42;11.63;;;21.00;99.90;;;;;;4991579;28;20489;-73
2022/08/29 02:36:03;;;;;;;18.35;12.68;;;21.00;99.90;;;;;;4991608;28;20030;-73
2022/08/29 02:38:29;;;;;;;21.10;12.05;;;20.90;99.90;;;;;;4991783;28;20452;-73
2022/08/29 02:40:55;;;;;;;21.05;11.70;;;20.90;99.90;;;;;;4991659;28;20042;-73
2022/08/29 02:43:22;;;;;;;23.50;12.77;;;21.00;99.90;;;;;;4991512;28;20484;-73
2022/08/29 02:45:48;;;;;;;19.35;11.60;;;20.90;99.90;;;;;;4990378;28;20076;-72
2022/08/29 02:48:15;;;;;;;18.35;10.65;;;20.90;99.90;;;;;;4991115;28;20205;-72
2022/08/29 02:50:47;;;;;;;20.55;12.52;;;20.80;99.90;;;;;;4997486;28;20042;-73
2022/08/29 02:53:15;;;;;;;20.08;12.00;;;20.80;99.90;;;;;;4991234;28;20042;-73
2022/08/29 02:55:40;;;;;;;19.13;12.52;;;20.80;99.90;;;;;;4991301;28;20045;-73
2022/08/29 02:58:07;;;;;;;20.40;13.15;;;20.70;99.90;;;;;;5006939;28;20030;-73
2022/08/29 03:00:34;;;;;;;20.35;12.82;;;20.80;99.90;;;;;;4992141;28;20018;-73
2022/08/29 03:03:02;;;;;;;21.08;12.98;;;20.30;99.90;;;;;;4995269;28;20033;-73
2022/08/29 03:05:33;;;;;;;20.63;12.57;;;21.00;99.90;;;;;;4999261;28;20108;-73
2022/08/29 03:08:00;;;;;;;22.17;13.70;;;21.10;99.90;;;;;;5007823;28;20061;-73
2022/08/29 03:10:27;;;;;;;18.30;11.70;;;21.20;99.90;;;;;;5016420;28;20107;-73
2022/08/29 03:12:54;;;;;;;21.63;13.20;;;21.20;99.90;;;;;;5021115;28;20124;-72
2022/08/29 03:15:20;;;;;;;20.52;11.88;;;21.20;99.90;;;;;;5021573;28;20073;-73
2022/08/29 03:17:46;;;;;;;20.80;12.63;;;21.20;99.90;;;;;;5013918;28;20477;-70
2022/08/29 03:20:15;;;;;;;19.20;12.20;;;21.20;99.90;;;;;;5013484;28;20113;-73
2022/08/29 03:22:41;;;;;;;20.13;13.77;;;21.20;99.90;;;;;;5016281;28;20112;-73
2022/08/29 03:25:07;;;;;;;25.23;13.32;;;21.20;99.90;;;;;;5018969;28;20097;-74
2022/08/29 03:27:34;;;;;;;20.60;11.63;;;21.20;99.90;;;;;;5022737;28;20124;-72
2022/08/29 03:30:00;;;;;;;20.27;12.20;;;21.20;99.90;;;;;;5015672;28;20026;-73
2022/08/29 03:32:28;;;;;;;18.75;11.38;;;21.10;99.90;;;;;;5026303;28;20038;-73
2022/08/29 03:34:54;;;;;;;19.35;12.55;;;21.10;99.90;;;;;;5015586;28;20021;-73
2022/08/29 03:37:20;;;;;;;22.13;12.40;;;21.10;99.90;;;;;;5015452;28;20033;-73
2022/08/29 03:39:46;;;;;;;20.70;11.15;;;21.00;99.90;;;;;;5015043;28;20479;-74
2022/08/29 03:42:12;;;;;;;18.02;11.48;;;21.00;99.90;;;;;;5015195;28;20087;-73
2022/08/29 03:44:41;;;;;;;17.63;11.70;;;21.00;99.90;;;;;;5015450;28;20029;-72
2022/08/29 03:47:07;;;;;;;14.95;10.25;;;21.00;99.90;;;;;;5015014;28;20034;-74
2022/08/29 03:49:33;;;;;;;20.52;12.68;;;21.00;99.90;;;;;;5015077;28;20100;-73
2022/08/29 03:51:59;;;;;;;19.05;12.80;;;21.00;99.90;;;;;;5014477;28;20544;-74
2022/08/29 03:54:26;;;;;;;18.27;11.55;;;20.90;99.90;;;;;;5014674;28;20037;-74
2022/08/29 03:56:52;;;;;;;19.10;11.70;;;20.90;99.90;;;;;;5014861;28;20495;-70
2022/08/29 03:59:19;;;;;;;16.40;11.27;;;21.00;99.90;;;;;;5014344;28;20026;-72
2022/08/29 04:01:47;;;;;;;19.98;10.98;;;21.00;99.90;;;;;;5014769;28;20022;-74
2022/08/29 04:05:05;;;;;;;16.17;11.00;;;21.00;99.90;;;;;;5014860;28;20026;-71
2022/08/29 04:07:02;;;;;;;20.48;11.27;;;21.10;99.90;;;;;;5014551;28;20084;-74
2022/08/29 04:09:29;;;;;;;13.98;8.63;;;21.10;99.90;;;;;;5014538;28;20025;-71
2022/08/29 04:11:55;;;;;;;17.25;9.60;;;21.10;99.90;;;;;;5013665;28;20029;-75
2022/08/29 04:14:21;;;;;;;15.07;7.93;;;21.10;99.90;;;;;;5013828;28;20033;-74
2022/08/29 04:16:48;;;;;;;18.00;9.73;;;21.10;99.90;;;;;;5013441;28;20061;-74
2022/08/29 04:19:15;;;;;;;17.77;11.00;;;21.20;99.90;;;;;;5014141;28;20026;-75
2022/08/29 04:21:41;;;;;;;22.30;11.48;;;21.10;99.90;;;;;;5013390;28;20100;-75
2022/08/29 04:24:07;;;;;;;18.65;10.77;;;21.20;99.90;;;;;;5013964;28;20461;-75
2022/08/29 04:26:33;;;;;;;19.83;10.05;;;21.20;99.90;;;;;;5014106;28;20033;-73
2022/08/29 04:29:00;;;;;;;23.98;12.52;;;21.20;99.90;;;;;;5013968;28;20116;-74
2022/08/29 04:31:26;;;;;;;18.70;12.95;;;21.20;99.90;;;;;;5024817;28;20057;-75
2022/08/29 04:33:52;;;;;;;19.08;12.23;;;21.10;99.90;;;;;;5014856;28;20091;-70
2022/08/29 04:36:18;;;;;;;17.38;12.38;;;21.00;99.90;;;;;;5013445;28;20080;-75
2022/08/29 04:38:44;;;;;;;21.52;14.30;;;20.90;99.90;;;;;;5021524;28;20112;-75
2022/08/29 04:41:14;;;;;;;23.58;13.93;;;20.80;99.90;;;;;;5017042;28;20160;-75
2022/08/29 04:43:41;;;;;;;19.10;12.43;;;20.80;99.90;;;;;;5020140;28;20034;-74
2022/08/29 04:46:07;;;;;;;21.50;13.57;;;20.90;99.90;;;;;;5012379;28;20456;-74
2022/08/29 04:48:33;;;;;;;20.02;13.15;;;20.90;99.90;;;;;;5018206;28;20415;-75
2022/08/29 04:51:00;;;;;;;21.38;13.32;;;21.00;99.90;;;;;;5013982;28;20030;-74
2022/08/29 04:53:27;;;;;;;22.42;13.85;;;21.00;99.90;;;;;;5014633;28;20128;-75
2022/08/29 04:56:05;;;;;;;21.15;13.88;;;21.10;99.90;;;;;;5016165;28;20021;-75
2022/08/29 04:58:36;;;;;;;21.63;12.88;;;21.10;99.90;;;;;;5017013;28;20026;-75
2022/08/29 05:01:02;;;;;;;26.15;15.15;;;21.10;99.90;;;;;;5017697;28;20026;-74
2022/08/29 05:03:29;;;;;;;21.60;13.68;;;21.10;99.90;;;;;;5013175;28;20026;-75
2022/08/29 05:06:06;;;;;;;20.83;12.50;;;21.00;99.90;;;;;;5013743;28;20552;-74
2022/08/29 05:08:33;;;;;;;19.42;12.70;;;21.00;99.90;;;;;;5013768;28;20037;-75
2022/08/29 05:11:00;;;;;;;21.13;13.18;;;21.10;99.90;;;;;;5019818;28;20017;-74
2022/08/29 05:13:26;;;;;;;20.17;12.27;;;21.10;99.90;;;;;;5017899;28;20038;-73
2022/08/29 05:15:52;;;;;;;22.40;13.73;;;21.10;99.90;;;;;;5022983;28;20021;-74
2022/08/29 05:18:19;;;;;;;20.77;13.95;;;21.10;99.90;;;;;;5012877;28;20026;-74
2022/08/29 05:20:47;;;;;;;21.25;13.77;;;21.10;99.90;;;;;;5017029;28;20025;-74
2022/08/29 05:23:15;;;;;;;19.98;13.65;;;21.10;99.90;;;;;;5019631;28;20088;-74
2022/08/29 05:25:41;;;;;;;30.17;13.43;;;21.00;99.90;;;;;;5016261;28;20010;-74
2022/08/29 05:28:10;;;;;;;18.38;11.80;;;21.20;99.90;;;;;;5029597;28;20025;-74
2022/08/29 05:30:39;;;;;;;20.08;11.95;;;21.10;99.90;;;;;;5018137;28;20022;-74
2022/08/29 05:33:06;;;;;;;19.45;11.55;;;21.00;99.90;;;;;;5022166;28;20480;-74
2022/08/29 05:35:34;;;;;;;21.30;13.32;;;21.00;99.90;;;;;;5014180;28;20084;-73
2022/08/29 05:38:03;;;;;;;20.15;12.25;;;21.00;99.90;;;;;;5014814;28;20532;-74
2022/08/29 05:40:29;;;;;;;23.50;13.23;;;21.00;99.90;;;;;;5012896;28;20033;-73
2022/08/29 05:42:55;;;;;;;19.13;13.70;;;21.10;99.90;;;;;;5016307;28;20052;-72
2022/08/29 05:45:21;;;;;;;20.05;13.13;;;20.90;99.90;;;;;;5012791;28;20087;-74
2022/08/29 05:47:47;;;;;;;19.98;13.63;;;21.00;99.90;;;;;;5019508;28;20488;-74
2022/08/29 05:50:15;;;;;;;20.17;12.25;;;20.90;99.90;;;;;;5012574;28;20477;-73
2022/08/29 05:52:42;;;;;;;21.48;13.30;;;21.00;99.90;;;;;;5012984;28;20042;-74
2022/08/29 05:55:09;;;;;;;22.92;13.52;;;21.10;99.90;;;;;;5012628;28;20021;-75
2022/08/29 05:57:35;;;;;;;23.58;13.23;;;21.00;99.90;;;;;;5013588;28;20451;-75
2022/08/29 06:00:01;;;;;;;20.50;12.45;;;21.10;99.90;;;;;;5026318;28;20021;-75
2022/08/29 06:02:28;;;;;;;21.23;12.27;;;21.10;99.90;;;;;;5024603;28;20132;-73
2022/08/29 06:04:54;;;;;;;20.67;13.35;;;21.10;99.90;;;;;;5013720;28;20101;-73
2022/08/29 06:07:20;;;;;;;25.60;13.27;;;21.10;99.90;;;;;;5027821;28;20029;-74
2022/08/29 06:09:46;;;;;;;21.40;13.43;;;21.30;99.90;;;;;;5015751;28;20445;-74
2022/08/29 06:12:14;;;;;;;24.67;12.80;;;21.50;99.90;;;;;;5012577;28;20489;-73
2022/08/29 06:14:40;;;;;;;22.27;12.35;;;21.50;99.90;;;;;;5022640;28;20064;-74
2022/08/29 06:17:07;;;;;;;19.98;12.55;;;21.70;99.90;;;;;;5013001;28;20026;-74
2022/08/29 06:19:36;;;;;;;19.30;11.88;;;21.70;99.90;;;;;;5012346;28;20034;-74
2022/08/29 06:22:03;;;;;;;19.27;11.55;;;22.00;99.90;;;;;;5012174;28;20029;-74
2022/08/29 06:24:32;;;;;;;18.00;11.90;;;22.20;99.90;;;;;;5012184;28;20053;-74
2022/08/29 06:26:59;;;;;;;18.90;11.90;;;22.40;99.90;;;;;;5015576;28;20045;-73
2022/08/29 06:29:28;;;;;;;17.58;10.63;;;22.70;99.90;;;;;;5021888;28;20061;-74
2022/08/29 06:31:57;;;;;;;17.02;10.55;;;22.90;99.90;;;;;;5012976;28;20029;-74
2022/08/29 06:34:23;;;;;;;15.95;10.25;;;23.10;99.90;;;;;;5012467;28;20029;-74
2022/08/29 06:36:52;;;;;;;17.27;10.38;;;23.80;99.90;;;;;;5018958;28;20022;-72
2022/08/29 06:39:19;;;;;;;15.48;10.27;;;23.40;99.90;;;;;;5015996;28;20026;-73
2022/08/29 06:41:45;;;;;;;18.25;10.82;;;23.40;99.90;;;;;;5017921;28;20116;-73
2022/08/29 06:44:13;;;;;;;17.50;9.60;;;23.40;99.90;;;;;;5016029;28;20415;-74
2022/08/29 06:46:41;;;;;;;19.02;10.38;;;23.50;99.90;;;;;;5016077;28;20080;-73
2022/08/29 06:49:11;;;;;;;17.20;10.05;;;23.50;99.90;;;;;;5015539;28;20654;-73
2022/08/29 06:51:38;;;;;;;19.98;10.65;;;23.60;99.90;;;;;;5024644;28;20059;-72
2022/08/29 06:54:07;;;;;;;17.92;10.55;;;23.80;99.90;;;;;;5018388;28;20450;-73
2022/08/29 06:56:34;;;;;;;16.08;8.68;;;23.50;99.90;;;;;;5015820;28;20034;-73
2022/08/29 06:59:00;;;;;;;16.63;10.23;;;23.40;99.90;;;;;;5015706;28;20041;-72
2022/08/29 07:01:26;;;;;;;16.27;9.52;;;23.30;99.90;;;;;;5017072;28;20264;-72
2022/08/29 07:03:53;;;;;;;15.35;9.13;;;23.30;99.90;;;;;;5015397;28;20119;-74
2022/08/29 07:06:19;;;;;;;16.60;10.05;;;23.30;99.90;;;;;;5014277;28;20033;-74
2022/08/29 07:08:46;;;;;;;16.52;10.30;;;23.40;99.90;;;;;;5001483;28;20045;-73
2022/08/29 07:11:11;;;;;;;19.35;10.15;;;23.40;99.90;;;;;;5015194;28;20022;-73
2022/08/29 07:13:38;;;;;;;17.30;10.63;;;23.40;99.90;;;;;;5016042;28;20124;-73
2022/08/29 07:16:08;;;;;;;16.90;9.57;;;23.50;99.90;;;;;;5022285;28;20018;-73
2022/08/29 07:18:35;;;;;;;14.70;9.32;;;23.60;99.90;;;;;;5017573;28;20408;-74
2022/08/29 07:21:05;;;;;;;16.88;9.45;;;23.70;99.90;;;;;;5024857;28;20100;-74
2022/08/29 07:23:31;;;;;;;18.52;10.60;;;23.80;99.90;;;;;;5015019;28;20431;-74
2022/08/29 07:26:13;;;;;;;19.48;10.45;;;23.80;99.90;;;;;;5015098;28;20030;-74
2022/08/29 07:28:39;;;;;;;16.77;9.38;;;23.90;99.90;;;;;;5014903;28;20026;-74
2022/08/29 07:31:05;;;;;;;15.10;9.65;;;24.00;99.90;;;;;;5014344;28;20053;-74
2022/08/29 07:33:32;;;;;;;23.13;10.45;;;24.00;99.90;;;;;;5013413;28;20091;-73
2022/08/29 07:35:59;;;;;;;17.10;9.52;;;24.20;99.90;;;;;;5014935;28;20018;-74
2022/08/29 07:38:27;;;;;;;16.58;10.10;;;24.30;99.90;;;;;;5014849;28;20040;-74
2022/08/29 07:41:13;;;;;;;19.13;9.55;;;24.50;99.90;;;;;;5012218;28;20018;-75
2022/08/29 07:43:39;;;;;;;15.48;9.50;;;24.50;99.90;;;;;;5014648;28;20562;-74
2022/08/29 07:46:14;;;;;;;14.13;9.00;;;24.80;99.90;;;;;;5015038;28;20049;-73
2022/08/29 07:48:41;;;;;;;17.35;10.88;;;24.60;99.90;;;;;;5013399;28;20060;-74
2022/08/29 07:51:12;;;;;;;18.05;10.20;;;24.90;99.90;;;;;;5020584;28;20018;-74
2022/08/29 07:53:40;;;;;;;13.95;9.50;;;25.20;99.90;;;;;;5014565;28;20084;-74
2022/08/29 07:56:11;;;;;;;15.43;9.40;;;25.60;99.90;;;;;;5014295;28;20065;-75
2022/08/29 07:58:38;;;;;;;12.35;8.18;;;25.60;99.90;;;;;;5018178;28;20040;-64
2022/08/29 08:01:05;;;;;;;18.85;9.93;;;25.50;99.90;;;;;;5010717;28;20054;-71
2022/08/29 08:03:32;;;;;;;13.50;8.82;;;25.10;99.90;;;;;;5015529;28;20117;-72
2022/08/29 08:05:58;;;;;;;15.50;9.90;;;25.10;99.90;;;;;;5024510;28;20018;-73
2022/08/29 08:08:24;;;;;;;18.48;10.52;;;24.90;99.90;;;;;;5013551;28;20030;-64
2022/08/29 08:10:50;;;;;;;16.10;9.55;;;25.00;99.90;;;;;;5014308;28;20083;-64
2022/08/29 08:13:17;;;;;;;16.58;8.70;;;25.10;99.90;;;;;;5013850;28;20476;-65
2022/08/29 08:15:43;;;;;;;16.75;9.63;;;25.10;99.90;;;;;;5016760;28;20043;-73
2022/08/29 08:18:09;;;;;;;15.55;9.77;;;25.00;99.90;;;;;;5020686;28;20108;-63
2022/08/29 08:20:35;;;;;;;16.40;9.10;;;25.00;99.90;;;;;;5016650;28;20100;-73
2022/08/29 08:23:00;;;;;;;18.23;9.05;;;24.80;99.90;;;;;;5014383;28;20033;-73
2022/08/29 08:25:26;;;;;;;13.93;8.90;;;24.90;99.90;;;;;;5024666;28;20046;-73
2022/08/29 08:27:53;;;;;;;18.25;9.50;;;25.10;99.90;;;;;;5013356;28;20384;-71
2022/08/29 08:30:20;;;;;;;19.02;9.10;;;25.20;99.90;;;;;;5014008;28;20014;-73
2022/08/29 08:32:47;;;;;;;15.25;9.55;;;25.30;99.90;;;;;;5012828;28;20563;-69
2022/08/29 08:35:14;;;;;;;18.85;9.48;;;25.30;99.90;;;;;;4997895;28;20015;-73
2022/08/29 08:37:41;;;;;;;15.40;8.32;;;25.30;99.90;;;;;;4993654;28;20132;-73
2022/08/29 08:40:13;;;;;;;14.40;8.90;;;25.10;99.90;;;;;;5012934;28;20025;-73
2022/08/29 08:42:44;;;;;;;16.55;8.73;;;25.30;99.90;;;;;;5013988;28;20030;-73
2022/08/29 08:45:25;;;;;;;13.75;7.88;;;25.40;99.90;;;;;;5013548;28;20026;-71
2022/08/29 08:48:03;;;;;;;15.83;9.13;;;25.30;99.90;;;;;;5009958;28;20048;-72
2022/08/29 08:50:37;;;;;;;14.77;8.98;;;25.80;99.90;;;;;;5011379;28;20354;-74
2022/08/29 08:53:32;;;;;;;15.90;9.00;;;26.10;99.90;;;;;;5012953;28;20042;-74
2022/08/29 08:56:01;;;;;;;16.00;8.77;;;26.40;99.90;;;;;;5011917;28;20079;-74
2022/08/29 08:58:35;;;;;;;18.77;8.70;;;26.30;99.90;;;;;;5000200;28;20026;-74
2022/08/29 09:01:26;;;;;;;15.90;9.10;;;26.30;99.90;;;;;;4992238;28;20469;-73
2022/08/29 09:04:09;;;;;;;14.25;8.15;;;26.10;99.90;;;;;;4992172;28;20032;-70
2022/08/29 09:07:13;;;;;;;13.88;8.52;;;26.20;99.90;;;;;;4992615;28;20034;-72
2022/08/29 09:09:54;;;;;;;15.98;8.02;;;26.20;99.90;;;;;;5000213;28;20045;-75
2022/08/29 09:12:35;;;;;;;14.63;8.13;;;26.50;99.90;;;;;;4993136;28;20054;-67
2022/08/29 09:15:08;;;;;;;14.30;8.57;;;26.70;99.90;;;;;;4993331;28;20060;-74
2022/08/29 09:17:35;;;;;;;17.20;8.32;;;26.80;99.90;;;;;;4992448;28;20137;-70
2022/08/29 09:20:07;;;;;;;13.88;8.25;;;26.60;99.90;;;;;;4995742;28;20041;-73
2022/08/29 09:22:33;;;;;;;;;;;26.70;99.90;;;;;;5012762;28;20080;-75
2022/08/29 09:25:05;;;;;;;12.23;7.57;;;26.70;99.90;;;;;;5013623;28;19905;-73
2022/08/29 09:27:32;;;;;;;;;;;26.80;99.90;;;;;;5013315;28;20383;-72
2022/08/29 09:30:13;;;;;;;11.65;7.93;;;26.90;99.90;;;;;;5012939;28;19906;-75
2022/08/29 09:33:01;;;;;;;12.77;7.78;;;27.20;99.90;;;;;;5012203;28;20107;-73
2022/08/29 09:35:39;;;;;;;16.80;7.88;;;27.30;99.90;;;;;;5012625;28;20033;-74
2022/08/29 09:38:17;;;;;;;13.85;8.10;;;27.50;99.90;;;;;;5012739;28;20121;-73
2022/08/29 09:41:09;;;;;;;20.45;7.25;;;27.50;99.90;;;;;;5012496;28;20476;-74
2022/08/29 09:43:38;;;;;;;13.70;8.10;;;27.50;99.90;;;;;;5012474;28;20404;-73
2022/08/29 09:46:09;;;;;;;12.52;8.38;;;27.30;99.90;;;;;;5012557;28;20436;-73
2022/08/29 09:48:50;;;;;;;13.02;8.35;;;27.10;99.90;;;;;;5012330;28;20054;-74
2022/08/29 09:51:25;;;;;;;13.07;7.72;;;27.10;99.90;;;;;;5012664;28;20033;-73
2022/08/29 09:53:52;;;;;;;16.38;8.27;;;27.10;99.90;;;;;;5012356;28;20049;-74
2022/08/29 09:56:26;;;;;;;13.30;8.38;;;27.30;99.90;;;;;;5012734;28;20377;-74
2022/08/29 09:59:02;;;;;;;14.80;7.43;;;27.30;99.90;;;;;;5012396;28;20034;-74
2022/08/29 10:01:31;;;;;;;12.55;7.00;;;27.30;99.90;;;;;;5026568;28;20468;-70
2022/08/29 10:04:01;;;;;;;18.30;8.32;;;27.60;99.90;;;;;;5012351;28;20076;-72
2022/08/29 10:06:33;;;;;;;12.60;6.55;;;27.60;99.90;;;;;;5012844;28;20453;-73
2022/08/29 10:09:09;;;;;;;12.80;6.78;;;27.60;99.90;;;;;;5012538;28;20033;-74
2022/08/29 10:12:10;;;;;;;10.65;6.32;;;27.40;99.90;;;;;;5012043;28;20500;-73
2022/08/29 10:14:48;;;;;;;10.60;6.20;;;27.50;99.90;;;;;;4970665;28;20047;-73
2022/08/29 10:20:10;;;;;;;12.07;7.55;;;27.30;99.90;;;;;;4967977;28;20106;-74
2022/08/29 10:22:55;;;;;;;12.38;7.32;;;27.30;99.90;;;;;;4955633;28;20389;-74
2022/08/29 10:25:38;;;;;;;13.50;7.07;;;27.50;99.90;;;;;;4970225;28;20042;-74
2022/08/29 10:28:09;;;;;;;11.32;7.43;;;27.70;99.90;;;;;;4970267;28;20468;-74
2022/08/29 10:30:48;;;;;;;12.02;6.90;;;27.90;99.90;;;;;;4970558;28;20074;-74
2022/08/29 10:33:53;;;;;;;11.55;7.32;;;28.20;99.90;;;;;;4970594;28;20074;-74
2022/08/29 10:36:37;;;;;;;12.13;7.68;;;28.20;99.90;;;;;;4970568;28;20565;-73
2022/08/29 10:39:17;;;;;;;10.30;6.10;;;28.10;99.90;;;;;;4970034;28;20034;-73
2022/08/29 10:41:48;;;;;;;12.65;7.50;;;28.00;99.90;;;;;;4970212;28;20034;-73
2022/08/29 10:44:38;;;;;;;10.27;6.80;;;28.20;99.90;;;;;;4970017;28;20031;-74
2022/08/29 10:47:38;;;;;;;14.88;7.38;;;28.30;99.90;;;;;;4970289;28;20101;-74
2022/08/29 10:50:32;;;;;;;22.05;6.65;;;28.30;99.90;;;;;;4988388;28;20416;-74
2022/08/29 10:53:03;;;;;;;13.15;6.97;;;28.10;99.90;;;;;;5011632;28;20042;-74
2022/08/29 10:55:41;;;;;;;13.63;6.13;;;27.90;99.90;;;;;;5011563;28;20349;-73
2022/08/29 10:58:21;;;;;;;9.57;6.25;;;28.10;99.90;;;;;;5011132;28;20029;-74
2022/08/29 11:00:53;;;;;;;12.73;6.68;;;28.30;99.90;;;;;;5011536;28;20072;-74
2022/08/29 11:03:38;;;;;;;10.70;6.47;;;28.20;99.90;;;;;;5011283;28;20022;-74
2022/08/29 11:06:22;;;;;;;10.57;6.50;;;28.40;99.90;;;;;;5010899;28;20069;-74
2022/08/29 11:09:01;;;;;;;12.32;6.35;;;28.60;99.90;;;;;;4996362;28;20034;-74
2022/08/29 11:11:30;;;;;;;11.90;6.63;;;28.60;99.90;;;;;;5011477;28;20015;-73
2022/08/29 11:14:00;;;;;;;13.00;7.28;;;28.50;99.90;;;;;;5011492;28;20046;-73
2022/08/29 11:16:33;;;;;;;10.95;6.80;;;28.60;99.90;;;;;;5011829;28;20072;-72
2022/08/29 11:19:12;;;;;;;7.95;5.53;;;28.70;99.90;;;;;;5011443;28;20084;-74
2022/08/29 11:21:50;;;;;;;11.00;6.40;;;28.70;99.90;;;;;;5012292;28;20478;-69
2022/08/29 11:24:17;;;;;;;14.43;6.28;;;28.80;99.90;;;;;;5015208;28;20032;-73
2022/08/29 11:26:54;;;;;;;11.10;6.72;;;28.60;99.90;;;;;;5014953;28;20042;-73
2022/08/29 11:29:32;;;;;;;13.15;7.03;;;28.40;99.90;;;;;;5012618;28;20092;-74
2022/08/29 11:32:43;;;;;;;9.80;6.10;;;28.20;99.90;;;;;;5013160;28;20044;-74
2022/08/29 11:35:17;;;;;;;11.73;6.72;;;28.10;99.90;;;;;;5012995;28;20085;-73
2022/08/29 11:38:19;;;;;;;10.70;5.90;;;28.10;99.90;;;;;;5014801;28;20022;-73
2022/08/29 11:40:57;;;;;;;;;;;28.40;99.90;;;;;;5015273;28;20026;-73
2022/08/29 11:43:31;;;;;;;12.20;6.15;;;28.30;99.90;;;;;;5014884;28;19929;-74
2022/08/29 11:46:04;;;;;;;12.52;6.47;;;28.20;99.90;;;;;;5014241;28;20018;-74
2022/08/29 11:48:40;;;;;;;9.38;5.88;;;28.10;99.90;;;;;;5014295;28;20500;-73
2022/08/29 11:51:38;;;;;;;9.70;5.78;;;28.10;99.90;;;;;;5014629;28;20080;-74
2022/08/29 11:54:22;;;;;;;10.88;5.97;;;28.10;99.90;;;;;;5014949;28;20038;-73
2022/08/29 11:56:49;;;;;;;8.07;5.22;;;28.00;99.90;;;;;;5014927;28;20469;-74
2022/08/29 11:59:49;;;;;;;9.93;6.07;;;28.20;99.90;;;;;;5013171;28;20061;-74
2022/08/29 12:02:30;;;;;;;9.88;5.15;;;28.30;99.90;;;;;;5013814;28;20550;-74
2022/08/29 12:05:28;;;;;;;11.80;5.85;;;28.40;99.90;;;;;;5014274;28;20108;-74
2022/08/29 12:08:01;;;;;;;11.52;5.75;;;28.30;99.90;;;;;;5013073;28;20065;-74
2022/08/29 12:10:49;;;;;;;9.73;5.60;;;28.20;99.90;;;;;;5014366;28;20026;-74
2022/08/29 12:13:43;;;;;;;10.07;6.00;;;28.30;99.90;;;;;;5014238;28;20407;-74
2022/08/29 12:16:12;;;;;;;8.68;5.15;;;28.40;99.90;;;;;;5014481;28;20484;-74
2022/08/29 12:18:49;;;;;;;9.65;5.90;;;28.60;99.90;;;;;;5013818;28;20056;-74
2022/08/29 12:21:33;;;;;;;10.70;5.95;;;28.70;99.90;;;;;;5014224;28;20034;-75
2022/08/29 12:23:59;;;;;;;12.50;6.03;;;28.80;99.90;;;;;;5013815;28;20033;-73
2022/08/29 12:26:39;;;;;;;8.00;5.25;;;29.00;99.90;;;;;;5014014;28;20026;-71
2022/08/29 12:29:06;;;;;;;10.07;5.30;;;29.20;99.90;;;;;;5013481;28;20033;-74
2022/08/29 12:31:52;;;;;;;8.40;5.38;;;29.00;99.90;;;;;;5013726;28;20021;-74
2022/08/29 12:34:42;;;;;;;8.88;5.32;;;29.00;99.90;;;;;;5013153;28;20106;-74
2022/08/29 12:37:27;;;;;;;10.30;5.45;;;29.00;98.60;;;;;;5013714;28;20025;-73
2022/08/29 12:40:12;;;;;;;11.00;5.93;;;28.90;99.90;;;;;;5013546;28;20040;-73
2022/08/29 12:42:56;;;;;;;8.52;5.65;;;28.90;99.90;;;;;;5013960;28;20060;-74
2022/08/29 12:45:30;;;;;;;10.10;5.22;;;29.00;99.90;;;;;;5013927;28;20105;-74
2022/08/29 12:48:05;;;;;;;8.13;5.20;;;29.10;99.90;;;;;;5013485;28;20037;-74
2022/08/29 12:50:43;;;;;;;8.25;4.13;;;29.00;99.40;;;;;;5013834;28;20037;-74
2022/08/29 12:53:25;;;;;;;8.00;4.53;;;28.90;99.00;;;;;;5013923;28;20034;-74
2022/08/29 12:55:54;;;;;;;8.77;5.55;;;28.80;99.20;;;;;;5014047;28;20057;-72
2022/08/29 12:58:36;;;;;;;8.20;5.25;;;28.80;99.90;;;;;;5013725;28;20030;-73
2022/08/29 13:01:05;;;;;;;10.88;4.95;;;29.10;99.90;;;;;;5013881;28;20392;-74